createdAt,value
2018-01-23T00:05:00.672Z,9.67
2018-01-23T00:10:04.936Z,9.47
2018-01-23T00:15:08.853Z,10.43
2018-01-23T00:20:12.384Z,10.50
2018-01-23T00:25:15.449Z,11.03
2018-01-23T00:30:18.697Z,10.60
2018-01-23T00:35:23.130Z,9.93
2018-01-23T00:40:27.177Z,8.87
2018-01-23T00:45:31.618Z,10.02
2018-01-23T00:50:35.082Z,10.73
2018-01-23T00:55:38.171Z,9.77
2018-01-23T01:00:41.309Z,10.07
2018-01-23T01:05:44.395Z,10.17
2018-01-23T01:10:48.842Z,8.80
2018-01-23T01:15:51.921Z,9.80
2018-01-23T01:20:55.782Z,8.43
2018-01-23T01:25:59.315Z,7.70
2018-01-23T01:31:02.394Z,8.25
2018-01-23T01:36:06.245Z,7.95
2018-01-23T01:41:10.886Z,7.73
2018-01-23T01:46:15.540Z,6.93
2018-01-23T01:51:20.028Z,7.93
2018-01-23T01:56:23.888Z,7.07
2018-01-23T02:01:27.767Z,7.27
2018-01-23T02:06:31.248Z,6.87
2018-01-23T02:11:35.466Z,7.80
2018-01-23T02:16:39.894Z,6.10
2018-01-23T02:21:44.183Z,6.87
2018-01-23T02:26:48.034Z,6.50
2018-01-23T02:31:51.536Z,5.47
2018-01-23T02:36:56.230Z,6.27
2018-01-23T02:41:59.711Z,6.00
2018-01-23T02:47:02.835Z,6.30
2018-01-23T02:52:06.316Z,6.53
2018-01-23T02:57:10.905Z,6.20
2018-01-23T03:02:14.692Z,7.33
2018-01-23T03:07:19.290Z,5.57
2018-01-23T03:12:23.879Z,7.27
2018-01-23T03:17:27.004Z,6.17
2018-01-23T03:22:31.235Z,5.87
2018-01-23T03:27:35.463Z,5.30
2018-01-23T03:32:39.318Z,6.78
2018-01-23T03:37:43.804Z,5.63
2018-01-23T03:42:48.051Z,5.97
2018-01-23T03:47:51.137Z,5.87
2018-01-23T03:52:56.926Z,7.20
2018-01-23T03:58:00.424Z,5.87
2018-01-23T04:03:03.967Z,5.70
2018-01-23T04:08:07.017Z,6.10
2018-01-23T04:13:11.395Z,6.00
2018-01-23T04:18:15.015Z,5.63
2018-01-23T04:23:19.881Z,5.77
2018-01-23T04:28:23.044Z,5.80
2018-01-23T04:33:27.545Z,6.13
2018-01-23T04:38:31.392Z,5.93
2018-01-23T04:43:34.904Z,6.70
2018-01-23T04:48:38.773Z,6.07
2018-01-23T04:53:43.385Z,5.77
2018-01-23T04:58:46.891Z,5.53
2018-01-23T05:03:50.021Z,5.30
2018-01-23T05:08:53.114Z,5.80
2018-01-23T05:13:57.593Z,5.60
2018-01-23T05:19:01.822Z,6.03
2018-01-23T05:24:05.733Z,6.20
2018-01-23T05:29:10.001Z,6.40
2018-01-23T05:34:13.117Z,5.73
2018-01-23T05:39:16.681Z,6.13
2018-01-23T05:44:20.270Z,6.85
2018-01-23T05:49:23.361Z,5.93
2018-01-23T05:54:27.328Z,5.90
2018-01-23T05:59:31.552Z,6.57
2018-01-23T06:04:34.664Z,5.60
2018-01-23T06:09:37.787Z,6.57
2018-01-23T06:14:42.012Z,5.60
2018-01-23T06:19:45.976Z,5.70
2018-01-23T06:24:49.074Z,6.13
2018-01-23T06:29:52.210Z,5.73
2018-01-23T06:34:55.917Z,5.83
2018-01-23T06:39:59.662Z,5.73
2018-01-23T06:45:03.154Z,5.50
2018-01-23T06:50:07.413Z,6.03
2018-01-23T06:55:10.549Z,6.63
2018-01-23T07:00:13.647Z,6.33
2018-01-23T07:05:17.595Z,6.80
2018-01-23T07:10:20.682Z,5.47
2018-01-23T07:15:26.338Z,6.27
2018-01-23T07:20:31.080Z,6.27
2018-01-23T07:25:35.544Z,5.60
2018-01-23T07:30:39.044Z,6.00
2018-01-23T07:35:43.189Z,6.20
2018-01-23T07:40:46.274Z,5.23
2018-01-23T07:45:50.877Z,5.73
2018-01-23T07:50:54.771Z,5.30
2018-01-23T07:55:58.270Z,5.17
2018-01-23T08:01:02.526Z,5.93
2018-01-23T08:06:05.594Z,5.60
2018-01-23T08:11:08.688Z,5.87
2018-01-23T08:16:11.776Z,5.73
2018-01-23T08:21:15.649Z,6.20
2018-01-23T08:26:19.888Z,5.83
2018-01-23T08:31:22.975Z,5.77
2018-01-23T08:36:27.636Z,5.53
2018-01-23T08:41:30.741Z,5.60
2018-01-23T08:46:34.596Z,5.50
2018-01-23T08:51:37.691Z,5.37
2018-01-23T08:56:41.425Z,6.47
2018-01-23T09:01:46.051Z,4.70
2018-01-23T09:06:49.935Z,5.27
2018-01-23T09:11:55.114Z,5.90
2018-01-23T09:16:58.979Z,4.57
2018-01-23T09:22:02.058Z,5.83
2018-01-23T09:27:05.192Z,4.60
2018-01-23T09:32:08.680Z,4.73
2018-01-23T09:37:12.912Z,5.05
2018-01-23T09:42:16.004Z,5.90
2018-01-23T09:47:21.423Z,5.10
2018-01-23T09:52:24.931Z,5.33
2018-01-23T09:57:28.015Z,4.97
2018-01-23T10:02:31.116Z,5.07
2018-01-23T10:07:35.005Z,5.20
2018-01-23T10:12:38.958Z,5.63
2018-01-23T10:17:42.181Z,4.20
2018-01-23T10:22:45.282Z,4.80
2018-01-23T10:27:49.152Z,4.33
2018-01-23T10:32:53.600Z,3.60
2018-01-23T10:37:57.077Z,4.23
2018-01-23T10:43:00.158Z,3.70
2018-01-23T10:48:03.650Z,4.03
2018-01-23T10:53:07.662Z,3.78
2018-01-23T10:58:11.173Z,3.90
2018-01-23T11:03:15.024Z,4.60
2018-01-23T11:08:18.863Z,5.27
2018-01-23T11:13:22.335Z,5.87
2018-01-23T11:18:26.556Z,5.00
2018-01-23T11:23:31.931Z,4.10
2018-01-23T11:28:35.267Z,4.80
2018-01-23T11:33:39.128Z,4.17
2018-01-23T11:38:42.205Z,3.30
2018-01-23T11:43:47.057Z,3.27
2018-01-23T11:48:52.636Z,3.13
2018-01-23T11:53:55.741Z,2.97
2018-01-23T11:58:59.526Z,3.40
2018-01-23T12:04:02.904Z,3.00
2018-01-23T12:09:05.975Z,2.93
2018-01-23T12:14:09.453Z,3.47
2018-01-23T12:19:12.568Z,3.23
2018-01-23T12:24:17.010Z,3.33
2018-01-23T12:29:21.292Z,3.00
2018-01-23T12:34:25.217Z,3.27
2018-01-23T12:39:29.638Z,2.83
2018-01-23T12:44:33.557Z,3.40
2018-01-23T12:49:37.063Z,3.80
2018-01-23T12:54:41.250Z,3.60
2018-01-23T12:59:44.334Z,4.47
2018-01-23T13:04:47.974Z,4.30
2018-01-23T13:09:51.874Z,4.70
2018-01-23T13:14:56.978Z,4.00
2018-01-23T13:20:00.868Z,3.50
2018-01-23T13:25:04.751Z,3.17
2018-01-23T13:30:07.845Z,3.40
2018-01-23T13:35:10.944Z,3.50
2018-01-23T13:40:14.040Z,4.32
2018-01-23T13:45:18.500Z,4.00
2018-01-23T13:50:21.993Z,3.37
2018-01-23T13:55:26.982Z,4.20
2018-01-23T14:00:30.081Z,3.50
2018-01-23T14:05:34.673Z,4.10
2018-01-23T14:10:38.181Z,3.05
2018-01-23T14:15:41.271Z,3.13
2018-01-23T14:20:45.720Z,3.37
2018-01-23T14:25:49.217Z,6.27
2018-01-23T14:30:53.678Z,4.73
2018-01-23T14:35:57.545Z,3.47
2018-01-23T14:41:01.045Z,3.73
2018-01-23T14:46:04.146Z,3.30
2018-01-23T14:51:07.267Z,3.57
2018-01-23T14:56:10.367Z,5.43
2018-01-23T15:01:13.466Z,3.00
2018-01-23T15:06:17.319Z,3.20
2018-01-23T15:11:20.418Z,2.60
2018-01-23T15:16:24.868Z,2.40
2018-01-23T15:21:27.959Z,2.40
2018-01-23T15:26:31.070Z,2.87
2018-01-23T15:31:35.669Z,3.10
2018-01-23T15:36:39.163Z,3.03
2018-01-23T15:41:42.287Z,2.50
2018-01-23T15:46:46.171Z,2.63
2018-01-23T15:51:50.044Z,2.37
2018-01-23T15:56:53.564Z,2.30
2018-01-23T16:01:58.010Z,2.53
2018-01-23T16:07:01.864Z,2.70
2018-01-23T16:12:06.778Z,2.10
2018-01-23T16:17:10.690Z,2.43
2018-01-23T16:22:13.769Z,2.30
2018-01-23T16:27:17.926Z,2.10
2018-01-23T16:32:21.406Z,2.30
2018-01-23T16:37:24.504Z,2.87
2018-01-23T16:42:27.613Z,2.80
2018-01-23T16:47:30.705Z,3.47
2018-01-23T16:52:33.830Z,4.40
2018-01-23T16:57:36.918Z,4.10
2018-01-23T17:02:40.419Z,3.40
2018-01-23T17:07:45.021Z,3.43
2018-01-23T17:12:48.512Z,4.05
2018-01-23T17:17:51.649Z,3.47
2018-01-23T17:22:55.057Z,3.23
2018-01-23T17:27:58.917Z,3.43
2018-01-23T17:33:03.392Z,3.42
2018-01-23T17:38:08.002Z,4.07
2018-01-23T17:43:11.866Z,3.10
2018-01-23T17:48:16.583Z,3.30
2018-01-23T17:53:20.072Z,2.70
2018-01-23T17:58:24.501Z,3.10
2018-01-23T18:03:27.593Z,2.30
2018-01-23T18:08:31.084Z,2.63
2018-01-23T18:13:35.160Z,2.70
2018-01-23T18:18:39.012Z,4.67
2018-01-23T18:23:42.873Z,6.87
2018-01-23T18:28:45.975Z,3.53
2018-01-23T18:33:50.229Z,2.50
2018-01-23T18:38:54.909Z,2.47
2018-01-23T18:43:58.752Z,2.70
2018-01-23T18:49:02.593Z,5.30
2018-01-23T18:54:06.436Z,2.33
2018-01-23T18:59:09.913Z,2.40
2018-01-23T19:04:14.092Z,2.70
2018-01-23T19:09:17.972Z,2.60
2018-01-23T19:14:22.214Z,2.30
2018-01-23T19:19:26.164Z,2.33
2018-01-23T19:24:30.908Z,2.33
2018-01-23T19:29:35.144Z,2.63
2018-01-23T19:34:39.615Z,2.57
2018-01-23T19:39:43.121Z,2.57
2018-01-23T19:44:46.235Z,2.30
2018-01-23T19:49:50.063Z,2.60
2018-01-23T19:54:54.296Z,2.40
2018-01-23T19:59:57.445Z,2.87
2018-01-23T20:05:01.299Z,2.97
2018-01-23T20:10:06.343Z,2.60
2018-01-23T20:15:09.431Z,2.67
2018-01-23T20:20:14.285Z,2.53
2018-01-23T20:25:17.765Z,3.00
2018-01-23T20:30:21.624Z,2.57
2018-01-23T20:35:27.180Z,2.90
2018-01-23T20:40:31.867Z,2.37
2018-01-23T20:45:35.742Z,2.72
2018-01-23T20:50:38.825Z,2.57
2018-01-23T20:55:42.067Z,2.40
2018-01-23T21:00:45.917Z,2.25
2018-01-23T21:05:49.395Z,2.40
2018-01-23T21:10:52.797Z,2.40
2018-01-23T21:15:55.889Z,2.40
2018-01-23T21:20:58.979Z,2.63
2018-01-23T21:26:03.414Z,2.20
2018-01-23T21:31:07.005Z,2.23
2018-01-23T21:36:10.471Z,2.60
2018-01-23T21:41:13.575Z,2.90
2018-01-23T21:46:16.683Z,3.17
2018-01-23T21:51:20.566Z,3.67
2018-01-23T21:56:23.681Z,3.40
2018-01-23T22:01:26.814Z,3.67
2018-01-23T22:06:31.255Z,2.80
2018-01-23T22:11:34.766Z,2.57
2018-01-23T22:16:38.261Z,2.90
2018-01-23T22:21:41.355Z,2.73
2018-01-23T22:26:46.316Z,2.27
2018-01-23T22:31:49.406Z,2.30
2018-01-23T22:36:53.863Z,2.23
2018-01-23T22:41:58.384Z,1.90
2018-01-23T22:47:02.474Z,2.03
2018-01-23T22:52:05.585Z,2.00
2018-01-23T22:57:09.105Z,2.10
2018-01-23T23:02:12.985Z,1.90
2018-01-23T23:07:16.805Z,2.27
2018-01-23T23:12:19.890Z,2.10
2018-01-23T23:17:24.684Z,2.10
2018-01-23T23:22:28.190Z,1.60
2018-01-23T23:27:32.053Z,1.50
2018-01-23T23:32:35.954Z,1.40
2018-01-23T23:37:39.077Z,1.10
2018-01-23T23:42:42.170Z,1.23
2018-01-23T23:47:45.271Z,1.20
2018-01-23T23:52:48.343Z,1.02
2018-01-23T23:57:52.205Z,1.13
